createdAt,value
2018-06-09T00:01:58.921Z,20.01
2018-06-09T00:04:29.108Z,20.08
2018-06-09T00:06:59.099Z,19.62
2018-06-09T00:09:29.081Z,19.86
2018-06-09T00:11:59.196Z,19.79
2018-06-09T00:14:29.195Z,19.71
2018-06-09T00:16:59.163Z,19.81
2018-06-09T00:19:28.894Z,19.86
2018-06-09T00:21:58.780Z,19.91
2018-06-09T00:24:28.490Z,19.89
2018-06-09T00:26:58.313Z,19.89
2018-06-09T00:29:28.091Z,19.95
2018-06-09T00:31:57.942Z,19.69
2018-06-09T00:34:27.818Z,19.75
2018-06-09T00:36:57.777Z,19.46
2018-06-09T00:39:27.746Z,19.19
2018-06-09T00:41:57.806Z,19.14
2018-06-09T00:44:27.522Z,19.14
2018-06-09T00:46:57.293Z,19.28
2018-06-09T00:49:27.239Z,19.52
2018-06-09T00:51:56.876Z,19.28
2018-06-09T00:54:26.599Z,19.36
2018-06-09T00:56:56.443Z,19.45
2018-06-09T00:59:26.181Z,19.64
2018-06-09T01:01:55.865Z,19.54
2018-06-09T01:04:25.640Z,19.38
2018-06-09T01:06:55.629Z,19.34
2018-06-09T01:09:25.213Z,19.57
2018-06-09T01:11:54.986Z,19.72
2018-06-09T01:14:24.716Z,19.68
2018-06-09T01:16:54.700Z,19.57
2018-06-09T01:19:24.373Z,19.71
2018-06-09T01:21:54.014Z,19.86
2018-06-09T01:24:23.887Z,19.79
2018-06-09T01:26:53.726Z,19.59
2018-06-09T01:29:23.618Z,19.76
2018-06-09T01:31:53.430Z,19.54
2018-06-09T01:34:23.579Z,19.59
2018-06-09T01:36:53.330Z,19.43
2018-06-09T01:39:23.147Z,19.48
2018-06-09T01:41:53.114Z,19.53
2018-06-09T01:44:23.208Z,19.46
2018-06-09T01:46:52.968Z,19.79
2018-06-09T01:49:22.523Z,19.85
2018-06-09T01:51:52.488Z,19.67
2018-06-09T01:54:22.209Z,19.45
2018-06-09T01:56:51.961Z,19.35
2018-06-09T01:59:21.871Z,19.39
2018-06-09T02:01:51.593Z,19.32
2018-06-09T02:04:21.527Z,19.32
2018-06-09T02:06:51.269Z,19.25
2018-06-09T02:09:21.049Z,19.34
2018-06-09T02:11:50.714Z,19.57
2018-06-09T02:14:20.370Z,19.52
2018-06-09T02:16:49.995Z,19.68
2018-06-09T02:19:19.775Z,19.38
2018-06-09T02:21:49.412Z,19.38
2018-06-09T02:24:19.348Z,19.39
2018-06-09T02:26:48.950Z,19.38
2018-06-09T02:29:19.030Z,19.23
2018-06-09T02:31:48.988Z,19.44
2018-06-09T02:34:18.544Z,19.52
2018-06-09T02:36:48.292Z,19.50
2018-06-09T02:39:17.867Z,19.47
2018-06-09T02:41:47.776Z,19.61
2018-06-09T02:44:17.467Z,19.43
2018-06-09T02:46:47.523Z,19.32
2018-06-09T02:49:17.595Z,19.36
2018-06-09T02:51:47.367Z,19.55
2018-06-09T02:54:17.124Z,19.44
2018-06-09T02:56:47.124Z,19.59
2018-06-09T02:59:16.783Z,19.74
2018-06-09T03:01:46.592Z,19.57
2018-06-09T03:04:16.296Z,19.60
2018-06-09T03:06:46.245Z,19.67
2018-06-09T03:09:16.197Z,19.77
2018-06-09T03:11:45.940Z,19.81
2018-06-09T03:14:16.013Z,19.66
2018-06-09T03:16:45.871Z,19.66
2018-06-09T03:19:15.740Z,19.55
2018-06-09T03:21:45.338Z,19.48
2018-06-09T03:24:15.106Z,19.39
2018-06-09T03:26:45.088Z,19.48
2018-06-09T03:29:14.902Z,19.28
2018-06-09T03:31:44.870Z,19.16
2018-06-09T03:34:14.712Z,19.23
2018-06-09T03:36:44.668Z,19.30
2018-06-09T03:39:14.452Z,19.01
2018-06-09T03:41:44.136Z,18.82
2018-06-09T03:44:13.806Z,18.75
2018-06-09T03:46:43.597Z,18.82
2018-06-09T03:49:13.546Z,18.71
2018-06-09T03:51:43.343Z,18.84
2018-06-09T03:54:13.126Z,18.93
2018-06-09T03:56:43.036Z,18.99
2018-06-09T03:59:12.630Z,19.18
2018-06-09T04:01:42.527Z,19.18
2018-06-09T04:04:12.200Z,19.50
2018-06-09T04:06:41.698Z,19.56
2018-06-09T04:09:11.326Z,19.80
2018-06-09T04:11:41.035Z,19.64
2018-06-09T04:14:11.049Z,19.64
2018-06-09T04:16:40.832Z,19.86
2018-06-09T04:19:10.911Z,19.57
2018-06-09T04:21:40.736Z,19.97
2018-06-09T04:24:10.598Z,19.85
2018-06-09T04:26:40.384Z,19.87
2018-06-09T04:29:10.239Z,19.86
2018-06-09T04:31:39.891Z,19.74
2018-06-09T04:34:09.465Z,19.82
2018-06-09T04:36:39.642Z,19.77
2018-06-09T04:39:09.588Z,20.02
2018-06-09T04:41:39.467Z,20.10
2018-06-09T04:44:09.310Z,20.59
2018-06-09T04:46:39.110Z,20.76
2018-06-09T04:49:09.088Z,20.63
2018-06-09T04:51:38.787Z,20.73
2018-06-09T04:54:08.652Z,20.84
2018-06-09T04:56:38.444Z,20.97
2018-06-09T04:59:08.139Z,20.73
2018-06-09T05:01:37.816Z,20.91
2018-06-09T05:04:07.470Z,21.07
2018-06-09T05:06:37.238Z,21.25
2018-06-09T05:09:08.531Z,21.48
2018-06-09T05:11:38.367Z,21.45
2018-06-09T05:14:08.007Z,21.76
2018-06-09T05:16:37.868Z,21.87
2018-06-09T05:19:08.193Z,21.86
2018-06-09T05:21:38.158Z,21.56
2018-06-09T05:24:08.231Z,21.73
2018-06-09T05:26:38.195Z,21.69
2018-06-09T05:29:07.821Z,22.13
2018-06-09T05:31:37.376Z,22.37
2018-06-09T05:34:07.080Z,22.46
2018-06-09T05:36:36.644Z,22.34
2018-06-09T05:39:08.496Z,22.46
2018-06-09T05:41:38.537Z,22.60
2018-06-09T05:44:08.383Z,23.05
2018-06-09T05:46:38.131Z,23.35
2018-06-09T05:49:08.031Z,23.28
2018-06-09T05:51:38.032Z,23.46
2018-06-09T05:54:07.741Z,23.49
2018-06-09T05:56:37.332Z,23.60
2018-06-09T05:59:07.064Z,23.60
2018-06-09T06:01:37.223Z,23.68
2018-06-09T06:04:07.122Z,23.90
2018-06-09T06:06:37.219Z,23.75
2018-06-09T06:09:08.428Z,23.98
2018-06-09T06:11:38.458Z,23.75
2018-06-09T06:14:08.303Z,24.20
2018-06-09T06:16:38.123Z,24.30
2018-06-09T06:19:07.786Z,24.30
2018-06-09T06:21:37.640Z,24.49
2018-06-09T06:24:07.484Z,24.56
2018-06-09T06:26:37.524Z,24.53
2018-06-09T06:29:07.674Z,24.60
2018-06-09T06:31:37.463Z,24.32
2018-06-09T06:34:07.173Z,24.29
2018-06-09T06:36:36.885Z,24.77
2018-06-09T06:39:09.582Z,25.31
2018-06-09T06:41:39.323Z,25.63
2018-06-09T06:44:09.346Z,25.66
2018-06-09T06:46:38.939Z,26.31
2018-06-09T06:49:08.570Z,26.36
2018-06-09T06:51:38.302Z,26.49
2018-06-09T06:54:08.343Z,26.57
2018-06-09T06:56:38.160Z,26.93
2018-06-09T06:59:08.118Z,26.67
2018-06-09T07:01:37.674Z,26.84
2018-06-09T07:04:07.545Z,27.69
2018-06-09T07:06:37.357Z,26.98
2018-06-09T07:09:08.872Z,26.76
2018-06-09T07:11:38.862Z,27.27
2018-06-09T07:14:08.932Z,27.58
2018-06-09T07:16:38.764Z,27.44
2018-06-09T07:19:08.670Z,27.36
2018-06-09T07:21:38.689Z,27.13
2018-06-09T07:24:08.356Z,27.27
2018-06-09T07:26:38.012Z,27.59
2018-06-09T07:29:07.567Z,27.72
2018-06-09T07:31:37.391Z,27.14
2018-06-09T07:34:07.301Z,26.55
2018-06-09T07:36:37.384Z,26.41
2018-06-09T07:39:08.562Z,26.58
2018-06-09T07:41:38.278Z,26.56
2018-06-09T07:44:08.091Z,26.65
2018-06-09T07:46:37.890Z,26.69
2018-06-09T07:49:07.950Z,26.12
2018-06-09T07:51:37.508Z,26.36
2018-06-09T07:54:07.600Z,26.43
2018-06-09T07:56:37.602Z,26.42
2018-06-09T07:59:07.230Z,26.21
2018-06-09T08:01:37.126Z,26.16
2018-06-09T08:04:06.801Z,25.96
2018-06-09T08:06:36.511Z,26.36
2018-06-09T08:09:07.395Z,26.84
2018-06-09T08:11:37.137Z,26.90
2018-06-09T08:14:07.019Z,27.40
2018-06-09T08:16:36.865Z,27.77
2018-06-09T08:19:06.809Z,28.12
2018-06-09T08:21:36.820Z,27.97
2018-06-09T08:24:06.306Z,27.93
2018-06-09T08:26:35.927Z,28.14
2018-06-09T08:29:05.506Z,28.46
2018-06-09T08:31:35.206Z,28.16
2018-06-09T08:34:04.867Z,27.29
2018-06-09T08:36:34.632Z,27.97
2018-06-09T08:39:05.199Z,28.48
2018-06-09T08:41:35.161Z,29.05
2018-06-09T08:44:05.084Z,29.16
2018-06-09T08:46:34.960Z,28.41
2018-06-09T08:49:04.924Z,29.15
2018-06-09T08:51:34.584Z,29.82
2018-06-09T08:54:04.149Z,27.42
2018-06-09T08:56:33.824Z,29.45
2018-06-09T08:59:03.526Z,29.25
2018-06-09T09:01:33.023Z,28.54
2018-06-09T09:04:02.872Z,29.01
2018-06-09T09:06:32.726Z,28.99
2018-06-09T09:09:02.567Z,29.13
2018-06-09T09:11:32.411Z,28.17
2018-06-09T09:14:02.084Z,28.60
2018-06-09T09:16:32.183Z,28.96
2018-06-09T09:19:02.390Z,28.81
2018-06-09T09:21:32.069Z,28.85
2018-06-09T09:24:01.886Z,28.69
2018-06-09T09:26:31.577Z,28.65
2018-06-09T09:29:01.983Z,29.18
2018-06-09T09:31:31.850Z,29.68
2018-06-09T09:34:01.782Z,29.96
2018-06-09T09:36:31.734Z,29.79
2018-06-09T09:39:01.646Z,30.19
2018-06-09T09:41:31.487Z,30.46
2018-06-09T09:44:01.411Z,31.10
2018-06-09T09:46:31.055Z,31.55
2018-06-09T09:49:00.752Z,31.25
2018-06-09T09:51:30.556Z,31.25
2018-06-09T09:54:00.383Z,31.78
2018-06-09T09:56:29.912Z,31.26
2018-06-09T09:58:59.545Z,31.48
2018-06-09T10:01:29.278Z,31.73
2018-06-09T10:03:59.088Z,32.24
2018-06-09T10:06:28.819Z,32.32
2018-06-09T10:08:58.930Z,32.54
2018-06-09T10:11:28.734Z,32.25
2018-06-09T10:13:58.743Z,32.33
2018-06-09T10:16:28.487Z,31.87
2018-06-09T10:18:58.036Z,32.16
2018-06-09T10:21:27.845Z,32.50
2018-06-09T10:23:57.715Z,32.92
2018-06-09T10:26:27.382Z,32.91
2018-06-09T10:28:57.082Z,33.43
2018-06-09T10:31:26.951Z,33.48
2018-06-09T10:33:56.714Z,33.51
2018-06-09T10:36:26.748Z,32.93
2018-06-09T10:38:56.353Z,32.99
2018-06-09T10:41:26.304Z,33.55
2018-06-09T10:43:56.231Z,33.23
2018-06-09T10:46:25.925Z,32.22
2018-06-09T10:48:55.539Z,31.67
2018-06-09T10:51:25.333Z,33.57
2018-06-09T10:53:55.284Z,33.74
2018-06-09T10:56:24.840Z,34.08
2018-06-09T10:58:54.464Z,33.88
2018-06-09T11:01:24.028Z,34.41
2018-06-09T11:03:53.907Z,34.87
2018-06-09T11:06:23.851Z,34.83
2018-06-09T11:08:53.493Z,35.09
2018-06-09T11:11:23.311Z,35.67
2018-06-09T11:13:53.032Z,35.80
2018-06-09T11:16:22.944Z,35.39
2018-06-09T11:18:52.668Z,34.78
2018-06-09T11:21:22.695Z,34.10
2018-06-09T11:23:52.699Z,32.70
2018-06-09T11:26:22.313Z,32.83
2018-06-09T11:28:51.872Z,33.05
2018-06-09T11:31:21.935Z,33.11
2018-06-09T11:33:51.671Z,32.67
2018-06-09T11:36:21.298Z,32.14
2018-06-09T11:38:51.155Z,31.64
2018-06-09T11:41:21.171Z,30.85
2018-06-09T11:43:51.487Z,30.52
2018-06-09T11:46:21.204Z,30.26
2018-06-09T11:48:51.259Z,29.99
2018-06-09T11:51:20.986Z,30.12
2018-06-09T11:53:50.807Z,29.90
2018-06-09T11:56:20.667Z,30.47
2018-06-09T11:58:50.292Z,30.78
2018-06-09T12:01:19.911Z,30.56
2018-06-09T12:03:49.649Z,30.63
2018-06-09T12:06:19.718Z,30.60
2018-06-09T12:08:49.479Z,30.27
2018-06-09T12:11:19.541Z,30.24
2018-06-09T12:13:49.574Z,29.91
2018-06-09T12:16:19.382Z,30.32
2018-06-09T12:18:49.159Z,30.26
2018-06-09T12:21:19.144Z,30.40
2018-06-09T12:23:48.995Z,30.32
2018-06-09T12:26:19.150Z,29.35
2018-06-09T12:28:48.836Z,29.45
2018-06-09T12:31:18.457Z,29.33
2018-06-09T12:33:48.434Z,29.03
2018-06-09T12:36:18.367Z,28.81
2018-06-09T12:38:48.338Z,28.40
2018-06-09T12:41:18.137Z,28.48
2018-06-09T12:43:47.962Z,28.50
2018-06-09T12:46:17.634Z,28.90
2018-06-09T12:48:47.771Z,28.78
2018-06-09T12:51:18.024Z,30.09
2018-06-09T12:53:47.826Z,30.59
2018-06-09T12:56:17.571Z,31.43
2018-06-09T12:58:47.265Z,31.10
2018-06-09T13:01:16.863Z,30.73
2018-06-09T13:03:46.800Z,30.78
2018-06-09T13:06:16.698Z,30.91
2018-06-09T13:08:46.467Z,31.23
2018-06-09T13:11:16.402Z,32.02
2018-06-09T13:13:46.358Z,32.65
2018-06-09T13:16:16.285Z,32.61
2018-06-09T13:18:46.147Z,32.82
2018-06-09T13:21:16.091Z,32.71
2018-06-09T13:23:45.906Z,32.52
2018-06-09T13:26:15.749Z,31.47
2018-06-09T13:28:46.057Z,31.21
2018-06-09T13:31:15.737Z,31.06
2018-06-09T13:33:45.761Z,30.56
2018-06-09T13:36:15.491Z,28.91
2018-06-09T13:38:45.316Z,29.34
2018-06-09T13:41:15.174Z,29.25
2018-06-09T13:43:45.136Z,29.30
2018-06-09T13:46:14.704Z,29.49
2018-06-09T13:48:44.592Z,30.21
2018-06-09T13:51:14.411Z,30.32
2018-06-09T13:53:44.165Z,29.94
2018-06-09T13:56:14.035Z,29.47
2018-06-09T13:58:43.615Z,29.24
2018-06-09T14:01:13.259Z,29.22
2018-06-09T14:03:43.091Z,29.03
2018-06-09T14:06:12.963Z,28.50
2018-06-09T14:08:42.707Z,28.34
2018-06-09T14:11:12.800Z,28.12
2018-06-09T14:13:42.798Z,28.10
2018-06-09T14:16:12.636Z,28.37
2018-06-09T14:18:42.472Z,28.41
2018-06-09T14:21:12.116Z,28.09
2018-06-09T14:23:41.958Z,28.25
2018-06-09T14:26:11.705Z,28.19
2018-06-09T14:28:41.354Z,28.27
2018-06-09T14:31:11.011Z,28.03
2018-06-09T14:33:40.719Z,28.37
2018-06-09T14:36:10.482Z,28.71
2018-06-09T14:38:40.278Z,28.72
2018-06-09T14:41:09.982Z,28.47
2018-06-09T14:43:40.008Z,28.37
2018-06-09T14:46:09.612Z,28.25
2018-06-09T14:48:39.535Z,27.93
2018-06-09T14:51:09.020Z,27.43
2018-06-09T14:53:38.841Z,26.93
2018-06-09T14:56:08.714Z,26.75
2018-06-09T14:58:38.676Z,26.63
2018-06-09T15:01:08.311Z,26.47
2018-06-09T15:03:37.893Z,26.22
2018-06-09T15:06:07.742Z,26.25
2018-06-09T15:08:37.516Z,25.45
2018-06-09T15:11:07.656Z,24.92
2018-06-09T15:13:37.358Z,23.24
2018-06-09T15:16:07.039Z,22.15
2018-06-09T15:18:36.869Z,22.09
2018-06-09T15:21:06.735Z,22.05
2018-06-09T15:23:36.753Z,21.86
2018-06-09T15:26:06.581Z,21.32
2018-06-09T15:28:36.716Z,20.73
2018-06-09T15:31:06.387Z,19.82
2018-06-09T15:33:35.950Z,19.04
2018-06-09T15:36:05.653Z,18.59
2018-06-09T15:38:35.606Z,18.32
2018-06-09T15:41:05.296Z,18.14
2018-06-09T15:43:35.274Z,17.85
2018-06-09T15:46:05.192Z,17.96
2018-06-09T15:48:35.031Z,18.11
2018-06-09T15:51:05.008Z,18.20
2018-06-09T15:53:34.722Z,18.24
2018-06-09T15:56:04.763Z,18.24
2018-06-09T15:58:34.732Z,18.32
2018-06-09T16:01:04.407Z,18.62
2018-06-09T16:03:34.120Z,18.73
2018-06-09T16:06:03.742Z,18.87
2018-06-09T16:08:33.567Z,18.94
2018-06-09T16:11:03.305Z,18.83
2018-06-09T16:13:32.974Z,19.03
2018-06-09T16:16:02.986Z,19.07
2018-06-09T16:18:32.897Z,19.16
2018-06-09T16:21:02.754Z,19.23
2018-06-09T16:23:32.651Z,19.28
2018-06-09T16:26:02.649Z,19.26
2018-06-09T16:28:32.368Z,19.28
2018-06-09T16:31:02.125Z,19.25
2018-06-09T16:33:31.754Z,19.60
2018-06-09T16:36:01.422Z,19.60
2018-06-09T16:38:31.050Z,19.74
2018-06-09T16:41:00.924Z,19.76
2018-06-09T16:43:30.885Z,19.70
2018-06-09T16:46:00.647Z,19.66
2018-06-09T16:48:30.394Z,19.66
2018-06-09T16:51:00.263Z,19.67
2018-06-09T16:53:30.019Z,19.76
2018-06-09T16:56:10.675Z,19.79
2018-06-09T16:58:40.494Z,19.65
2018-06-09T17:01:10.173Z,19.63
2018-06-09T17:03:39.787Z,19.61
2018-06-09T17:06:10.359Z,19.62
2018-06-09T17:08:46.199Z,19.65
2018-06-09T17:11:16.162Z,19.63
2018-06-09T17:13:46.083Z,19.62
2018-06-09T17:16:15.873Z,19.62
2018-06-09T17:18:45.730Z,19.74
2018-06-09T17:21:15.583Z,19.61
2018-06-09T17:23:45.267Z,19.62
2018-06-09T17:26:15.226Z,19.64
2018-06-09T17:28:45.106Z,19.52
2018-06-09T17:31:31.059Z,19.58
2018-06-09T17:34:23.139Z,19.59
2018-06-09T17:36:53.916Z,19.61
2018-06-09T17:39:23.924Z,19.58
2018-06-09T17:41:53.848Z,19.50
2018-06-09T17:44:23.720Z,19.70
2018-06-09T17:46:53.716Z,19.82
2018-06-09T17:49:23.479Z,19.82
2018-06-09T17:51:53.195Z,19.85
2018-06-09T17:54:23.004Z,19.91
2018-06-09T17:56:53.044Z,19.86
2018-06-09T17:59:23.104Z,19.78
2018-06-09T18:01:52.823Z,19.82
2018-06-09T18:04:22.559Z,19.67
2018-06-09T18:06:52.180Z,19.55
2018-06-09T18:09:21.790Z,19.42
2018-06-09T18:11:52.067Z,19.36
2018-06-09T18:14:22.146Z,19.43
2018-06-09T18:16:52.180Z,19.48
2018-06-09T18:19:22.160Z,19.38
2018-06-09T18:21:51.927Z,19.63
2018-06-09T18:24:21.774Z,19.57
2018-06-09T18:26:51.587Z,19.52
2018-06-09T18:29:21.558Z,19.44
2018-06-09T18:31:51.295Z,19.45
2018-06-09T18:34:21.032Z,19.43
2018-06-09T18:36:50.777Z,19.35
2018-06-09T18:39:20.727Z,19.37
2018-06-09T18:41:50.357Z,19.39
2018-06-09T18:44:20.037Z,19.49
2018-06-09T18:46:49.926Z,19.49
2018-06-09T18:49:19.747Z,19.51
2018-06-09T18:51:49.615Z,19.69
2018-06-09T18:54:19.286Z,19.57
2018-06-09T18:56:49.239Z,19.77
2018-06-09T18:59:19.122Z,19.76
2018-06-09T19:01:49.056Z,19.54
2018-06-09T19:04:18.953Z,19.53
2018-06-09T19:06:48.610Z,19.77
2018-06-09T19:09:18.187Z,19.84
2018-06-09T19:11:47.825Z,19.85
2018-06-09T19:14:17.870Z,19.51
2018-06-09T19:16:47.716Z,19.28
2018-06-09T19:19:17.364Z,19.51
2018-06-09T19:21:47.364Z,19.46
2018-06-09T19:24:16.958Z,19.56
2018-06-09T19:26:46.595Z,19.73
2018-06-09T19:29:16.391Z,19.76
2018-06-09T19:31:46.332Z,19.69
2018-06-09T19:34:16.101Z,19.69
2018-06-09T19:36:45.848Z,19.63
2018-06-09T19:39:15.623Z,19.52
2018-06-09T19:41:45.270Z,19.60
2018-06-09T19:44:15.099Z,19.51
2018-06-09T19:46:44.655Z,19.57
2018-06-09T19:49:14.443Z,19.56
2018-06-09T19:51:44.479Z,19.57
2018-06-09T19:54:14.440Z,19.65
2018-06-09T19:56:44.148Z,19.54
2018-06-09T19:59:13.930Z,19.56
2018-06-09T20:01:44.054Z,19.61
2018-06-09T20:04:13.799Z,19.65
2018-06-09T20:06:43.677Z,19.71
2018-06-09T20:09:13.446Z,19.70
2018-06-09T20:11:43.197Z,19.50
2018-06-09T20:14:13.131Z,19.65
2018-06-09T20:16:42.819Z,19.75
2018-06-09T20:19:12.774Z,19.66
2018-06-09T20:21:42.657Z,19.69
2018-06-09T20:24:12.522Z,19.64
2018-06-09T20:26:42.679Z,19.53
2018-06-09T20:29:12.829Z,19.29
2018-06-09T20:31:42.733Z,19.27
2018-06-09T20:34:12.613Z,19.21
2018-06-09T20:36:42.454Z,19.25
2018-06-09T20:39:12.415Z,19.26
2018-06-09T20:41:42.235Z,18.97
2018-06-09T20:44:11.929Z,18.85
2018-06-09T20:46:41.657Z,18.59
2018-06-09T20:49:11.416Z,18.46
2018-06-09T20:51:41.607Z,18.40
2018-06-09T20:54:11.219Z,18.24
2018-06-09T20:56:41.346Z,18.20
2018-06-09T20:59:11.294Z,18.21
2018-06-09T21:01:41.124Z,18.29
2018-06-09T21:04:10.847Z,18.22
2018-06-09T21:06:40.667Z,18.45
2018-06-09T21:09:10.433Z,18.31
2018-06-09T21:11:40.294Z,18.15
2018-06-09T21:14:09.962Z,18.14
2018-06-09T21:16:39.518Z,18.26
2018-06-09T21:19:09.212Z,18.44
2018-06-09T21:21:38.884Z,18.34
2018-06-09T21:24:08.523Z,18.09
2018-06-09T21:26:43.448Z,18.33
2018-06-09T21:29:17.288Z,18.48
2018-06-09T21:31:47.123Z,18.56
2018-06-09T21:34:32.979Z,18.35
2018-06-09T21:37:08.067Z,18.55
2018-06-09T21:39:42.886Z,18.49
2018-06-09T21:42:17.790Z,18.54
2018-06-09T21:44:52.537Z,18.31
2018-06-09T21:47:22.069Z,18.23
2018-06-09T21:49:51.736Z,18.15
2018-06-09T21:52:21.251Z,18.48
2018-06-09T21:54:51.044Z,18.61
2018-06-09T21:57:20.817Z,18.56
2018-06-09T21:59:50.759Z,18.64
2018-06-09T22:02:20.449Z,18.70
2018-06-09T22:04:50.467Z,18.80
2018-06-09T22:07:20.279Z,18.79
2018-06-09T22:09:50.292Z,18.69
2018-06-09T22:12:20.048Z,18.25
2018-06-09T22:14:49.917Z,18.21
2018-06-09T22:17:19.759Z,18.51
2018-06-09T22:19:49.395Z,18.38
2018-06-09T22:22:18.985Z,18.13
2018-06-09T22:24:48.588Z,18.26
2018-06-09T22:27:18.233Z,18.57
2018-06-09T22:29:48.305Z,18.60
2018-06-09T22:32:18.211Z,18.42
2018-06-09T22:34:47.967Z,18.29
2018-06-09T22:37:17.889Z,18.59
2018-06-09T22:39:47.853Z,18.41
2018-06-09T22:42:17.713Z,18.19
2018-06-09T22:44:47.567Z,17.98
2018-06-09T22:47:17.551Z,18.06
2018-06-09T22:49:47.682Z,18.14
2018-06-09T22:52:17.319Z,17.95
2018-06-09T22:54:46.957Z,17.99
2018-06-09T22:57:16.491Z,18.14
2018-06-09T22:59:46.251Z,18.05
2018-06-09T23:02:15.872Z,17.91
2018-06-09T23:04:45.622Z,17.92
2018-06-09T23:07:15.579Z,17.96
2018-06-09T23:09:45.560Z,17.95
2018-06-09T23:12:15.221Z,17.71
2018-06-09T23:14:45.167Z,17.73
2018-06-09T23:17:14.979Z,18.00
2018-06-09T23:19:44.683Z,17.69
2018-06-09T23:22:14.434Z,17.79
2018-06-09T23:24:44.343Z,17.83
2018-06-09T23:27:13.850Z,17.72
2018-06-09T23:29:43.524Z,17.66
2018-06-09T23:32:13.441Z,17.73
2018-06-09T23:34:43.475Z,17.61
2018-06-09T23:37:13.250Z,17.73
2018-06-09T23:39:43.176Z,17.82
2018-06-09T23:42:13.197Z,17.76
2018-06-09T23:44:42.841Z,17.88
2018-06-09T23:47:12.601Z,17.78
2018-06-09T23:49:42.360Z,17.81
2018-06-09T23:52:12.276Z,17.89
2018-06-09T23:54:42.056Z,17.69
2018-06-09T23:57:11.572Z,17.61
2018-06-09T23:59:41.065Z,17.70
